Hanseatic Scout — V2BM2 — position and weather

sailwx.info

Track history (hours):
 
Tides and Currents Weather Stations Pressure Air Temp Water Temp Dewpoint Dewpoint Depression Visibility Wind Speed Wind Dir Waves Ship Positions

Hanseatic Scout

Last reported at 2015-Sep-04 20:33 UTC. Time now 2015-Sep-04 21:07 UTC.
Position N 55°23' E 012°42'.

Length 89 m; draft 6.3 m.

Type: Cargo ship. MMSI: 304867000.

Date/timePositionNaut miles runAvg speedWind from/ knotsBaromVisibWave heightAir tempDewpointWater temp
2015-Sep-04 20:33N 55°23' E 012°42'10 9.6
2015-Sep-04 19:33N 55°13' E 012°40'9 8.9
2015-Sep-04 18:33N 55°05' E 012°42'32 8.1
2015-Sep-04 14:33N 54°35' E 012°19'9 9.0
2015-Sep-04 13:33N 54°27' E 012°14'9 9.3
2015-Sep-04 12:33N 54°19' E 012°05'9 8.6
2015-Sep-04 11:33N 54°10' E 012°06'1 1.3
2015-Sep-04 10:33N 54°09' E 012°07'0 0.0
2015-Sep-04 09:33N 54°09' E 012°07'0 0.0
2015-Sep-04 08:27N 54°09' E 012°07'0 0.0
2015-Sep-04 07:33N 54°09' E 012°07'0 0.0
2015-Sep-04 06:34N 54°09' E 012°07'0 0.0
2015-Sep-04 05:33N 54°09' E 012°07'0 0.0
2015-Sep-04 04:33N 54°09' E 012°07'0 0.0
2015-Sep-04 03:33N 54°09' E 012°07'0 0.0
2015-Sep-04 02:33N 54°09' E 012°07'0 0.0
2015-Sep-04 01:33N 54°09' E 012°07'0 0.0
2015-Sep-04 00:33N 54°09' E 012°07'0 0.0
2015-Sep-03 23:33N 54°09' E 012°07'0 0.0
2015-Sep-03 22:33N 54°09' E 012°07'0 0.0
2015-Sep-03 21:33N 54°09' E 012°07'0 0.0
2015-Sep-03 20:33N 54°09' E 012°07'0 0.0
2015-Sep-03 19:34N 54°09' E 012°07'0 0.0
2015-Sep-03 18:33N 54°09' E 012°07'0 0.0
2015-Sep-03 17:32N 54°09' E 012°07'0 0.0
2015-Sep-03 16:33N 54°09' E 012°07'0 0.0
2015-Sep-03 15:33N 54°09' E 012°07'0 0.0
2015-Sep-03 14:33N 54°09' E 012°07'0 0.0
2015-Sep-03 13:33N 54°09' E 012°07'0 0.0
2015-Sep-03 12:32N 54°09' E 012°07'0 0.0
2015-Sep-03 11:33N 54°09' E 012°07'0 0.0
2015-Sep-03 10:33N 54°09' E 012°07'0 0.0
2015-Sep-03 09:34N 54°09' E 012°07'0 0.0
2015-Sep-03 08:33N 54°09' E 012°07'0 0.0
2015-Sep-03 07:33N 54°09' E 012°07'0 0.0
2015-Sep-03 06:32N 54°09' E 012°07'0 0.0
2015-Sep-03 05:33N 54°09' E 012°07'1 1.3
2015-Sep-03 04:33N 54°10' E 012°06'6 6.4
2015-Sep-03 03:33N 54°16' E 012°01'6 6.0
2015-Sep-03 02:33N 54°19' E 011°52'6 6.3
2015-Sep-03 01:33N 54°18' E 011°41'6 6.2
2015-Sep-03 00:33N 54°15' E 011°32'6 6.2
2015-Sep-02 23:33N 54°12' E 011°23'7 6.5
2015-Sep-02 22:33N 54°08' E 011°14'7 6.6
2015-Sep-02 21:33N 54°04' E 011°05'1 0.0
2015-Sep-01 16:33N 54°04' E 011°04'10 9.7
2015-Sep-01 15:33N 54°10' E 011°17'9 8.7
2015-Sep-01 14:33N 54°17' E 011°26'10 9.7
2015-Sep-01 13:33N 54°27' E 011°26'8 8.4
2015-Sep-01 12:33N 54°33' E 011°16'1111.1
2015-Sep-01 11:33N 54°39' E 010°60'9 8.7
2015-Sep-01 10:32N 54°47' E 010°52'11 8.7
2015-Sep-01 09:17N 54°57' E 010°57'7 9.1
2015-Sep-01 08:33N 55°03' E 011°02'10 9.5
2015-Sep-01 07:33N 55°12' E 011°06'11 9.7
2015-Sep-01 06:23N 55°23' E 011°00'120 8.6
2015-Aug-31 16:30N 57°23' E 010°43'9 9.1
2015-Aug-31 15:28N 57°32' E 010°44'1010.4
2015-Aug-31 14:33N 57°41' E 010°45'8 7.7
2015-Aug-31 13:33N 57°48' E 010°37'1110.7
2015-Aug-31 12:33N 57°49' E 010°17'1110.6
2015-Aug-31 11:31N 57°48' E 009°57'1010.6
2015-Aug-31 10:33N 57°47' E 009°38'1110.7
2015-Aug-31 09:33N 57°46' E 009°18'102 8.5
2015-Aug-30 21:33N 58°14' E 006°12'9 9.0
2015-Aug-30 20:33N 58°21' E 006°04'9 9.0
2015-Aug-30 19:33N 58°27' E 005°51'1 1.4
2015-Aug-30 18:32N 58°29' E 005°53'0 0.0
2015-Aug-30 17:32N 58°29' E 005°53'0 0.0
2015-Aug-30 16:32N 58°29' E 005°53'0 0.0
2015-Aug-30 15:32N 58°29' E 005°53'0 0.0
2015-Aug-30 14:32N 58°29' E 005°53'0 0.0
2015-Aug-30 13:32N 58°29' E 005°53'0 0.0
2015-Aug-30 12:32N 58°29' E 005°53'0 0.0
2015-Aug-30 11:32N 58°29' E 005°53'0 0.0
2015-Aug-30 10:32N 58°29' E 005°53'0 0.0
2015-Aug-30 09:32N 58°29' E 005°53'0 0.0
2015-Aug-30 08:32N 58°29' E 005°53'1 0.7
2015-Aug-30 07:33N 58°28' E 005°51'10 9.8
2015-Aug-30 06:33N 58°27' E 005°33'1110.8
2015-Aug-30 05:32N 58°28' E 005°12'24210.9
2015-Aug-29 07:20N 58°42' W 002°31'912.1
2015-Aug-29 06:34N 58°42' W 002°49'1515.2
2015-Aug-29 05:33N 58°43' W 003°18'1111.4
2015-Aug-29 04:33N 58°42' W 003°40'1111.2
2015-Aug-29 03:33N 58°41' W 004°01'1110.6
2015-Aug-29 02:33N 58°41' W 004°22'10 9.9
2015-Aug-29 01:33N 58°41' W 004°41'9 9.4
2015-Aug-29 00:33N 58°40' W 004°59'12 9.0
2015-Aug-28 23:12N 58°31' W 005°15'811.1
2015-Aug-28 22:28N 58°24' W 005°23'2311.6
2015-Aug-28 20:29N 58°05' W 005°46'14110.1
2015-Aug-28 06:33N 55°50' W 007°01'8 8.2
2015-Aug-28 05:33N 55°42' W 006°56'8 8.2
2015-Aug-28 04:33N 55°35' W 006°51'8 8.2
2015-Aug-28 03:33N 55°28' W 006°42'1010.3
2015-Aug-28 02:32N 55°26' W 006°23'1211.6
2015-Aug-28 01:33N 55°25' W 006°03'1413.7
2015-Aug-28 00:33N 55°14' W 005°49'1312.6
2015-Aug-27 23:33N 55°03' W 005°37'1211.5
2015-Aug-27 22:33N 54°52' W 005°32'1111.0
2015-Aug-27 21:33N 54°41' W 005°27'1110.6
2015-Aug-27 20:33N 54°31' W 005°23'9 9.0
2015-Aug-27 19:33N 54°22' W 005°23'10 9.9
2015-Aug-27 18:33N 54°14' W 005°32'1010.3
2015-Aug-27 17:33N 54°07' W 005°45'1110.6
2015-Aug-27 16:33N 54°01' W 005°60'11 8.7
2015-Aug-27 15:19N 54°06' W 006°16'0 0.0
2015-Aug-27 13:19N 54°06' W 006°15'0 0.0
2015-Aug-27 11:31N 54°06' W 006°15'0 0.0
2015-Aug-27 10:28N 54°06' W 006°15'0 0.0
2015-Aug-27 09:28N 54°06' W 006°15'0 0.0
2015-Aug-27 08:22N 54°06' W 006°15'0 0.0
2015-Aug-27 07:22N 54°06' W 006°15'0 0.0
2015-Aug-27 06:23N 54°06' W 006°15'0 0.0
2015-Aug-27 05:31N 54°06' W 006°15'0 0.0
2015-Aug-27 04:31N 54°06' W 006°15'0 0.0
2015-Aug-27 03:22N 54°06' W 006°15'0 0.0
2015-Aug-27 01:13N 54°06' W 006°15'0 0.0
2015-Aug-27 00:31N 54°06' W 006°15'0 0.0
2015-Aug-26 23:31N 54°06' W 006°15'0 0.0
2015-Aug-26 22:25N 54°06' W 006°15'0 0.0
2015-Aug-26 21:19N 54°06' W 006°15'0 0.0
2015-Aug-26 20:10N 54°06' W 006°15'0 0.0
2015-Aug-26 19:31N 54°06' W 006°15'0 0.0
2015-Aug-26 18:31N 54°06' W 006°15'0 0.0
2015-Aug-26 17:24N 54°06' W 006°15'0 0.0
2015-Aug-26 15:30N 54°06' W 006°15'0 0.0
2015-Aug-26 12:09N 54°06' W 006°15'0 0.0
2015-Aug-26 11:30N 54°06' W 006°15'0 0.0
2015-Aug-26 10:27N 54°06' W 006°15'0 0.0
2015-Aug-26 09:18N 54°06' W 006°15'0 0.0
2015-Aug-26 08:16N 54°06' W 006°15'0 0.0
2015-Aug-26 07:10N 54°06' W 006°15'0 0.0
2015-Aug-26 06:28N 54°06' W 006°15'0 0.0
2015-Aug-26 05:22N 54°06' W 006°15'0 0.0
2015-Aug-26 04:13N 54°06' W 006°15'0 0.0
2015-Aug-26 03:31N 54°06' W 006°15'0 0.0
2015-Aug-26 02:28N 54°06' W 006°15'0 0.0
2015-Aug-26 01:19N 54°06' W 006°15'0 0.0
2015-Aug-26 00:10N 54°06' W 006°15'0 0.0
2015-Aug-25 23:28N 54°06' W 006°15'0 0.0
2015-Aug-25 22:20N 54°06' W 006°15'0 0.0
2015-Aug-25 21:05N 54°06' W 006°15'  
Track history (hours):
 
Tides and Currents Weather Stations Pressure Air Temp Water Temp Dewpoint Dewpoint Depression Visibility Wind Speed Wind Dir Waves Ship Positions

Hanseatic Scout

Last reported at 2015-Sep-04 20:33 UTC. Time now 2015-Sep-04 21:07 UTC.
Position N 55°23' E 012°42'.

Length 89 m; draft 6.3 m.

Type: Cargo ship. MMSI: 304867000.

Date/timePositionNaut miles runAvg speedWind from/ knotsBaromVisibWave heightAir tempDewpointWater temp
2015-Sep-04 20:33N 55°23' E 012°42'10 9.6
2015-Sep-04 19:33N 55°13' E 012°40'9 8.9
2015-Sep-04 18:33N 55°05' E 012°42'32 8.1
2015-Sep-04 14:33N 54°35' E 012°19'9 9.0
2015-Sep-04 13:33N 54°27' E 012°14'9 9.3
2015-Sep-04 12:33N 54°19' E 012°05'9 8.6
2015-Sep-04 11:33N 54°10' E 012°06'1 1.3
2015-Sep-04 10:33N 54°09' E 012°07'0 0.0
2015-Sep-04 09:33N 54°09' E 012°07'0 0.0
2015-Sep-04 08:27N 54°09' E 012°07'0 0.0
2015-Sep-04 07:33N 54°09' E 012°07'0 0.0
2015-Sep-04 06:34N 54°09' E 012°07'0 0.0
2015-Sep-04 05:33N 54°09' E 012°07'0 0.0
2015-Sep-04 04:33N 54°09' E 012°07'0 0.0
2015-Sep-04 03:33N 54°09' E 012°07'0 0.0
2015-Sep-04 02:33N 54°09' E 012°07'0 0.0
2015-Sep-04 01:33N 54°09' E 012°07'0 0.0
2015-Sep-04 00:33N 54°09' E 012°07'0 0.0
2015-Sep-03 23:33N 54°09' E 012°07'0 0.0
2015-Sep-03 22:33N 54°09' E 012°07'0 0.0
2015-Sep-03 21:33N 54°09' E 012°07'0 0.0
2015-Sep-03 20:33N 54°09' E 012°07'0 0.0
2015-Sep-03 19:34N 54°09' E 012°07'0 0.0
2015-Sep-03 18:33N 54°09' E 012°07'0 0.0
2015-Sep-03 17:32N 54°09' E 012°07'0 0.0
2015-Sep-03 16:33N 54°09' E 012°07'0 0.0
2015-Sep-03 15:33N 54°09' E 012°07'0 0.0
2015-Sep-03 14:33N 54°09' E 012°07'0 0.0
2015-Sep-03 13:33N 54°09' E 012°07'0 0.0
2015-Sep-03 12:32N 54°09' E 012°07'0 0.0
2015-Sep-03 11:33N 54°09' E 012°07'0 0.0
2015-Sep-03 10:33N 54°09' E 012°07'0 0.0
2015-Sep-03 09:34N 54°09' E 012°07'0 0.0
2015-Sep-03 08:33N 54°09' E 012°07'0 0.0
2015-Sep-03 07:33N 54°09' E 012°07'0 0.0
2015-Sep-03 06:32N 54°09' E 012°07'0 0.0
2015-Sep-03 05:33N 54°09' E 012°07'1 1.3
2015-Sep-03 04:33N 54°10' E 012°06'6 6.4
2015-Sep-03 03:33N 54°16' E 012°01'6 6.0
2015-Sep-03 02:33N 54°19' E 011°52'6 6.3
2015-Sep-03 01:33N 54°18' E 011°41'6 6.2
2015-Sep-03 00:33N 54°15' E 011°32'6 6.2
2015-Sep-02 23:33N 54°12' E 011°23'7 6.5
2015-Sep-02 22:33N 54°08' E 011°14'7 6.6
2015-Sep-02 21:33N 54°04' E 011°05'1 0.0
2015-Sep-01 16:33N 54°04' E 011°04'10 9.7
2015-Sep-01 15:33N 54°10' E 011°17'9 8.7
2015-Sep-01 14:33N 54°17' E 011°26'10 9.7
2015-Sep-01 13:33N 54°27' E 011°26'8 8.4
2015-Sep-01 12:33N 54°33' E 011°16'1111.1
2015-Sep-01 11:33N 54°39' E 010°60'9 8.7
2015-Sep-01 10:32N 54°47' E 010°52'11 8.7
2015-Sep-01 09:17N 54°57' E 010°57'7 9.1
2015-Sep-01 08:33N 55°03' E 011°02'10 9.5
2015-Sep-01 07:33N 55°12' E 011°06'11 9.7
2015-Sep-01 06:23N 55°23' E 011°00'120 8.6
2015-Aug-31 16:30N 57°23' E 010°43'9 9.1
2015-Aug-31 15:28N 57°32' E 010°44'1010.4
2015-Aug-31 14:33N 57°41' E 010°45'8 7.7
2015-Aug-31 13:33N 57°48' E 010°37'1110.7
2015-Aug-31 12:33N 57°49' E 010°17'1110.6
2015-Aug-31 11:31N 57°48' E 009°57'1010.6
2015-Aug-31 10:33N 57°47' E 009°38'1110.7
2015-Aug-31 09:33N 57°46' E 009°18'102 8.5
2015-Aug-30 21:33N 58°14' E 006°12'9 9.0
2015-Aug-30 20:33N 58°21' E 006°04'9 9.0
2015-Aug-30 19:33N 58°27' E 005°51'1 1.4
2015-Aug-30 18:32N 58°29' E 005°53'0 0.0
2015-Aug-30 17:32N 58°29' E 005°53'0 0.0
2015-Aug-30 16:32N 58°29' E 005°53'0 0.0
2015-Aug-30 15:32N 58°29' E 005°53'0 0.0
2015-Aug-30 14:32N 58°29' E 005°53'0 0.0
2015-Aug-30 13:32N 58°29' E 005°53'0 0.0
2015-Aug-30 12:32N 58°29' E 005°53'0 0.0
2015-Aug-30 11:32N 58°29' E 005°53'0 0.0
2015-Aug-30 10:32N 58°29' E 005°53'0 0.0
2015-Aug-30 09:32N 58°29' E 005°53'0 0.0
2015-Aug-30 08:32N 58°29' E 005°53'1 0.7
2015-Aug-30 07:33N 58°28' E 005°51'10 9.8
2015-Aug-30 06:33N 58°27' E 005°33'1110.8
2015-Aug-30 05:32N 58°28' E 005°12'24210.9
2015-Aug-29 07:20N 58°42' W 002°31'912.1
2015-Aug-29 06:34N 58°42' W 002°49'1515.2
2015-Aug-29 05:33N 58°43' W 003°18'1111.4
2015-Aug-29 04:33N 58°42' W 003°40'1111.2
2015-Aug-29 03:33N 58°41' W 004°01'1110.6
2015-Aug-29 02:33N 58°41' W 004°22'10 9.9
2015-Aug-29 01:33N 58°41' W 004°41'9 9.4
2015-Aug-29 00:33N 58°40' W 004°59'12 9.0
2015-Aug-28 23:12N 58°31' W 005°15'811.1
2015-Aug-28 22:28N 58°24' W 005°23'2311.6
2015-Aug-28 20:29N 58°05' W 005°46'14110.1
2015-Aug-28 06:33N 55°50' W 007°01'8 8.2
2015-Aug-28 05:33N 55°42' W 006°56'8 8.2
2015-Aug-28 04:33N 55°35' W 006°51'8 8.2
2015-Aug-28 03:33N 55°28' W 006°42'1010.3
2015-Aug-28 02:32N 55°26' W 006°23'1211.6
2015-Aug-28 01:33N 55°25' W 006°03'1413.7
2015-Aug-28 00:33N 55°14' W 005°49'1312.6
2015-Aug-27 23:33N 55°03' W 005°37'1211.5
2015-Aug-27 22:33N 54°52' W 005°32'1111.0
2015-Aug-27 21:33N 54°41' W 005°27'1110.6
2015-Aug-27 20:33N 54°31' W 005°23'9 9.0
2015-Aug-27 19:33N 54°22' W 005°23'10 9.9
2015-Aug-27 18:33N 54°14' W 005°32'1010.3
2015-Aug-27 17:33N 54°07' W 005°45'1110.6
2015-Aug-27 16:33N 54°01' W 005°60'11 8.7
2015-Aug-27 15:19N 54°06' W 006°16'0 0.0
2015-Aug-27 13:19N 54°06' W 006°15'0 0.0
2015-Aug-27 11:31N 54°06' W 006°15'0 0.0
2015-Aug-27 10:28N 54°06' W 006°15'0 0.0
2015-Aug-27 09:28N 54°06' W 006°15'0 0.0
2015-Aug-27 08:22N 54°06' W 006°15'0 0.0
2015-Aug-27 07:22N 54°06' W 006°15'0 0.0
2015-Aug-27 06:23N 54°06' W 006°15'0 0.0
2015-Aug-27 05:31N 54°06' W 006°15'0 0.0
2015-Aug-27 04:31N 54°06' W 006°15'0 0.0
2015-Aug-27 03:22N 54°06' W 006°15'0 0.0
2015-Aug-27 01:13N 54°06' W 006°15'0 0.0
2015-Aug-27 00:31N 54°06' W 006°15'0 0.0
2015-Aug-26 23:31N 54°06' W 006°15'0 0.0
2015-Aug-26 22:25N 54°06' W 006°15'0 0.0
2015-Aug-26 21:19N 54°06' W 006°15'0 0.0
2015-Aug-26 20:10N 54°06' W 006°15'0 0.0
2015-Aug-26 19:31N 54°06' W 006°15'0 0.0
2015-Aug-26 18:31N 54°06' W 006°15'0 0.0
2015-Aug-26 17:24N 54°06' W 006°15'0 0.0
2015-Aug-26 15:30N 54°06' W 006°15'0 0.0
2015-Aug-26 12:09N 54°06' W 006°15'0 0.0
2015-Aug-26 11:30N 54°06' W 006°15'0 0.0
2015-Aug-26 10:27N 54°06' W 006°15'0 0.0
2015-Aug-26 09:18N 54°06' W 006°15'0 0.0
2015-Aug-26 08:16N 54°06' W 006°15'0 0.0
2015-Aug-26 07:10N 54°06' W 006°15'0 0.0
2015-Aug-26 06:28N 54°06' W 006°15'0 0.0
2015-Aug-26 05:22N 54°06' W 006°15'0 0.0
2015-Aug-26 04:13N 54°06' W 006°15'0 0.0
2015-Aug-26 03:31N 54°06' W 006°15'0 0.0
2015-Aug-26 02:28N 54°06' W 006°15'0 0.0
2015-Aug-26 01:19N 54°06' W 006°15'0 0.0
2015-Aug-26 00:10N 54°06' W 006°15'0 0.0
2015-Aug-25 23:28N 54°06' W 006°15'0 0.0
2015-Aug-25 22:20N 54°06' W 006°15'0 0.0
2015-Aug-25 21:05N 54°06' W 006°15'  

Dump ship's entire track history